Terminal Aerodrome Forecast
Issued by NWS Shreveport, LA

Home | Current Version | Previous Version | Text Only | Print | Product List | Glossary On
Versions: 1 2 3 4 5 6 7 8 9 10 11 12 13 14
000
FTUS44 KSHV 302356
TAFTYR
TAF
KTYR 302356Z 3100/3124 15007KT P6SM SCT070 BKN250
     FM310200 17005KT P6SM SCT100 BKN250
     FM310700 20004KT P6SM BKN150 BKN250
     FM311500 20007KT P6SM BKN130 BKN250
     FM312000 17008KT P6SM BKN060 BKN250=

USA.gov is the U.S. government's official web portal to all federal, state and local government web resources and services.